KRWL/RWL METAR and TAF weather

Enter ICAO airport designator
Station Type Date Time Source
KRWL METAR 2021/01/17 18:53 UTC NOAA

KRWL 171853Z AUTO 26026G34KT 10SM CLR 01/M07 A3005 RMK AO2 PK WND 25035/1818 SLP197 T00111072


Station Type Date Time Source
KRWL Decoded METAR 2021/01/17 18:53 UTC NOAA

RAWLINS MUNICIPAL AIRPORT, WY, United States (KRWL) 41-48N 107-12W
Jan 17, 2021 - 01:53 PM EST / 2021.01.17 1853 UTC
Wind: from the W (260 degrees) at 30 MPH (26 KT) gusting to 39 MPH (34 KT):0
Visibility: 10 mile(s):0
Sky conditions: clear
Temperature: 34.0 F (1.1 C)
Windchill: 21 F (-6 C):1
Dew Point: 19.0 F (-7.2 C)
Relative Humidity: 53%
Pressure (altimeter): 30.05 in. Hg (1017 hPa)
ob: KRWL 171853Z AUTO 26026G34KT 10SM CLR 01/M07 A3005 RMK AO2 PK WND 25035/1818 SLP197 T00111072
cycle: 19

Station Type Date Time Source
KRWL TAF 2021/01/17 18:45 UTC NOAA

TAF KRWL 171743Z 1718/1818 24020G30KT P6SM BKN100
FM180100 25020G30KT P6SM BKN060
FM180500 27015KT P6SM SCT040 BKN060

Example: see airport list